createdAt,value
2018-09-02T00:01:15.401Z,102505.52
2018-09-02T00:03:45.208Z,102508.52
2018-09-02T00:06:14.711Z,102513.42
2018-09-02T00:08:44.338Z,102517.84
2018-09-02T00:11:13.727Z,102520.84
2018-09-02T00:13:42.995Z,102523.78
2018-09-02T00:16:12.364Z,102521.46
2018-09-02T00:18:41.851Z,102521.06
2018-09-02T00:21:11.143Z,102506.45
2018-09-02T00:23:40.841Z,102511.25
2018-09-02T00:26:10.111Z,102514.69
2018-09-02T00:28:39.489Z,102513.34
2018-09-02T00:31:08.949Z,102504.67
2018-09-02T00:33:38.190Z,102506.69
2018-09-02T00:36:07.476Z,102511.30
2018-09-02T00:38:36.816Z,102505.13
2018-09-02T00:41:06.519Z,102511.08
2018-09-02T00:43:36.123Z,102508.91
2018-09-02T00:46:06.083Z,102509.12
2018-09-02T00:48:35.433Z,102510.84
2018-09-02T00:51:04.941Z,102502.39
2018-09-02T00:53:34.517Z,102508.76
2018-09-02T00:56:03.822Z,102510.92
2018-09-02T00:58:33.314Z,102513.39
2018-09-02T01:01:03.678Z,102514.80
2018-09-02T01:03:32.906Z,102516.97
2018-09-02T01:06:02.176Z,102512.65
2018-09-02T01:08:31.472Z,102515.14
2018-09-02T01:11:00.712Z,102515.87
2018-09-02T01:13:30.012Z,102518.41
2018-09-02T01:15:59.452Z,102510.84
2018-09-02T01:18:28.778Z,102511.18
2018-09-02T01:20:58.027Z,102513.23
2018-09-02T01:23:27.275Z,102515.59
2018-09-02T01:25:57.207Z,102511.37
2018-09-02T01:28:26.491Z,102515.54
2018-09-02T01:30:55.938Z,102523.18
2018-09-02T01:33:25.297Z,102524.13
2018-09-02T01:35:54.607Z,102515.43
2018-09-02T01:38:24.202Z,102520.91
2018-09-02T01:40:53.583Z,102523.40
2018-09-02T01:43:22.869Z,102520.16
2018-09-02T01:45:53.078Z,102513.28
2018-09-02T01:48:22.420Z,102517.60
2018-09-02T01:50:51.744Z,102524.87
2018-09-02T01:53:21.066Z,102524.43
2018-09-02T01:55:50.483Z,102527.80
2018-09-02T01:58:19.902Z,102533.34
2018-09-02T02:00:49.713Z,102532.63
2018-09-02T02:03:19.201Z,102526.38
2018-09-02T02:05:48.663Z,102530.98
2018-09-02T02:08:18.129Z,102532.97
2018-09-02T02:10:47.730Z,102528.50
2018-09-02T02:13:17.311Z,102529.70
2018-09-02T02:15:49.160Z,102528.03
2018-09-02T02:18:18.558Z,102523.48
2018-09-02T02:20:48.030Z,102536.13
2018-09-02T02:23:18.120Z,102525.15
2018-09-02T02:25:47.548Z,102529.27
2018-09-02T02:28:16.921Z,102515.16
2018-09-02T02:30:46.354Z,102523.20
2018-09-02T02:33:15.916Z,102524.76
2018-09-02T02:35:45.625Z,102518.51
2018-09-02T02:38:15.175Z,102520.06
2018-09-02T02:40:44.860Z,102530.39
2018-09-02T02:43:14.183Z,102535.34
2018-09-02T02:45:43.543Z,102534.70
2018-09-02T02:48:12.913Z,102535.63
2018-09-02T02:50:42.329Z,102537.89
2018-09-02T02:53:11.629Z,102531.66
2018-09-02T02:55:41.221Z,102529.03
2018-09-02T02:58:10.568Z,102527.80
2018-09-02T03:00:39.858Z,102530.12
2018-09-02T03:03:09.133Z,102524.16
2018-09-02T03:05:38.504Z,102521.38
2018-09-02T03:08:07.978Z,102529.53
2018-09-02T03:10:37.208Z,102529.31
2018-09-02T03:13:06.538Z,102525.78
2018-09-02T03:15:36.236Z,102521.47
2018-09-02T03:18:05.922Z,102518.72
2018-09-02T03:20:35.263Z,102520.76
2018-09-02T03:23:04.850Z,102521.87
2018-09-02T03:25:34.105Z,102520.80
2018-09-02T03:28:03.466Z,102518.34
2018-09-02T03:30:32.853Z,102517.34
2018-09-02T03:33:02.104Z,102515.05
2018-09-02T03:35:31.294Z,102518.91
2018-09-02T03:38:01.251Z,102520.76
2018-09-02T03:40:30.597Z,102531.56
2018-09-02T03:42:59.840Z,102524.18
2018-09-02T03:45:29.171Z,102526.95
2018-09-02T03:47:58.516Z,102525.39
2018-09-02T03:50:27.755Z,102527.25
2018-09-02T03:52:57.085Z,102528.77
2018-09-02T03:55:26.870Z,102525.22
2018-09-02T03:57:56.232Z,102537.42
2018-09-02T04:00:26.241Z,102532.45
2018-09-02T04:02:55.742Z,102530.41
2018-09-02T04:05:25.077Z,102527.86
2018-09-02T04:07:54.728Z,102528.98
2018-09-02T04:10:24.262Z,102525.83
2018-09-02T04:12:54.120Z,102516.05
2018-09-02T04:15:24.246Z,102523.62
2018-09-02T04:17:53.820Z,102532.14
2018-09-02T04:20:30.183Z,102535.34
2018-09-02T04:22:59.523Z,102532.79
2018-09-02T04:25:29.216Z,102527.64
2018-09-02T04:27:58.534Z,102525.97
2018-09-02T04:30:28.141Z,102528.59
2018-09-02T04:32:57.693Z,102527.38
2018-09-02T04:35:26.964Z,102525.13
2018-09-02T04:37:56.304Z,102522.75
2018-09-02T04:40:25.549Z,102526.05
2018-09-02T04:42:54.808Z,102525.05
2018-09-02T04:45:24.219Z,102521.25
2018-09-02T04:47:53.934Z,102531.53
2018-09-02T04:50:23.572Z,102526.95
2018-09-02T04:52:52.813Z,102530.89
2018-09-02T04:55:22.197Z,102527.00
2018-09-02T04:57:52.209Z,102537.49
2018-09-02T05:00:22.272Z,102528.97
2018-09-02T05:02:52.237Z,102530.70
2018-09-02T05:05:21.788Z,102523.70
2018-09-02T05:07:51.323Z,102516.14
2018-09-02T05:10:21.069Z,102521.33
2018-09-02T05:12:50.882Z,102521.20
2018-09-02T05:15:20.467Z,102528.51
2018-09-02T05:17:50.066Z,102526.69
2018-09-02T05:20:19.571Z,102524.76
2018-09-02T05:22:49.400Z,102524.34
2018-09-02T05:25:18.945Z,102525.71
2018-09-02T05:27:49.002Z,102526.25
2018-09-02T05:30:18.419Z,102526.43
2018-09-02T05:32:48.007Z,102523.30
2018-09-02T05:35:17.539Z,102520.91
2018-09-02T05:37:46.846Z,102528.48
2018-09-02T05:40:16.161Z,102529.31
2018-09-02T05:42:45.541Z,102524.38
2018-09-02T05:45:14.893Z,102521.44
2018-09-02T05:47:44.274Z,102531.95
2018-09-02T05:50:13.660Z,102529.51
2018-09-02T05:52:42.994Z,102529.98
2018-09-02T05:55:12.329Z,102528.44
2018-09-02T05:57:42.646Z,102528.47
2018-09-02T06:00:11.817Z,102530.23
2018-09-02T06:02:41.124Z,102520.64
2018-09-02T06:05:10.513Z,102522.22
2018-09-02T06:07:39.933Z,102522.04
2018-09-02T06:10:09.247Z,102529.77
2018-09-02T06:12:38.534Z,102524.89
2018-09-02T06:15:07.890Z,102522.07
2018-09-02T06:17:37.112Z,102521.97
2018-09-02T06:20:07.084Z,102533.38
2018-09-02T06:22:36.366Z,102526.02
2018-09-02T06:25:06.420Z,102528.07
2018-09-02T06:27:35.786Z,102527.59
2018-09-02T06:30:05.163Z,102533.96
2018-09-02T06:32:34.365Z,102530.58
2018-09-02T06:35:04.160Z,102525.88
2018-09-02T06:37:33.445Z,102525.39
2018-09-02T06:40:02.880Z,102525.50
2018-09-02T06:42:32.165Z,102525.61
2018-09-02T06:45:01.398Z,102526.54
2018-09-02T06:47:30.656Z,102525.55
2018-09-02T06:50:00.100Z,102524.95
2018-09-02T06:52:29.406Z,102528.34
2018-09-02T06:54:58.863Z,102524.20
2018-09-02T06:57:29.108Z,102527.95
2018-09-02T06:59:58.532Z,102529.86
2018-09-02T07:02:28.089Z,102524.83
2018-09-02T07:04:58.262Z,102525.50
2018-09-02T07:07:27.618Z,102527.06
2018-09-02T07:09:56.970Z,102524.16
2018-09-02T07:12:26.965Z,102524.16
2018-09-02T07:14:56.646Z,102526.86
2018-09-02T07:17:26.102Z,102532.16
2018-09-02T07:19:56.437Z,102532.47
2018-09-02T07:22:26.056Z,102526.75
2018-09-02T07:24:55.823Z,102527.73
2018-09-02T07:27:25.719Z,102527.36
2018-09-02T07:29:55.156Z,102531.61
2018-09-02T07:32:24.928Z,102532.47
2018-09-02T07:34:54.716Z,102531.91
2018-09-02T07:37:24.360Z,102530.03
2018-09-02T07:39:53.911Z,102530.27
2018-09-02T07:42:24.614Z,102526.41
2018-09-02T07:44:54.465Z,102529.41
2018-09-02T07:47:24.074Z,102537.69
2018-09-02T07:49:53.716Z,102536.52
2018-09-02T07:52:23.051Z,102541.15
2018-09-02T07:54:52.665Z,102541.75
2018-09-02T07:57:22.461Z,102539.55
2018-09-02T07:59:52.249Z,102540.41
2018-09-02T08:02:21.596Z,102538.39
2018-09-02T08:04:51.168Z,102534.66
2018-09-02T08:07:21.194Z,102538.31
2018-09-02T08:09:50.614Z,102534.17
2018-09-02T08:12:20.664Z,102536.48
2018-09-02T08:14:49.976Z,102537.86
2018-09-02T08:17:19.647Z,102540.22
2018-09-02T08:19:49.149Z,102539.06
2018-09-02T08:22:18.517Z,102539.63
2018-09-02T08:24:48.335Z,102536.95
2018-09-02T08:27:18.837Z,102540.89
2018-09-02T08:29:48.237Z,102534.73
2018-09-02T08:32:17.797Z,102547.84
2018-09-02T08:34:55.898Z,102541.17
2018-09-02T08:37:25.354Z,102540.48
2018-09-02T08:39:56.636Z,102541.91
2018-09-02T08:42:25.927Z,102540.70
2018-09-02T08:44:56.584Z,102537.81
2018-09-02T08:47:26.168Z,102537.09
2018-09-02T08:49:55.717Z,102536.36
2018-09-02T08:52:25.226Z,102543.50
2018-09-02T08:54:54.723Z,102544.07
2018-09-02T08:57:24.517Z,102539.22
2018-09-02T08:59:54.209Z,102537.81
2018-09-02T09:02:23.715Z,102536.77
2018-09-02T09:04:53.430Z,102538.50
2018-09-02T09:07:24.014Z,102531.14
2018-09-02T09:09:53.775Z,102528.92
2018-09-02T09:12:23.447Z,102532.03
2018-09-02T09:14:54.099Z,102536.36
2018-09-02T09:17:23.531Z,102531.05
2018-09-02T09:19:54.705Z,102532.90
2018-09-02T09:22:25.205Z,102530.30
2018-09-02T09:24:54.854Z,102529.48
2018-09-02T09:27:25.062Z,102530.22
2018-09-02T09:29:54.619Z,102525.33
2018-09-02T09:32:24.210Z,102522.44
2018-09-02T09:34:53.544Z,102516.84
2018-09-02T09:37:23.429Z,102508.52
2018-09-02T09:39:53.210Z,102514.54
2018-09-02T09:42:22.822Z,102512.75
2018-09-02T09:44:52.639Z,102508.85
2018-09-02T09:47:22.511Z,102512.09
2018-09-02T09:49:52.538Z,102516.06
2018-09-02T09:52:22.443Z,102515.25
2018-09-02T09:54:52.217Z,102526.28
2018-09-02T09:57:21.978Z,102515.27
2018-09-02T09:59:52.436Z,102515.41
2018-09-02T10:02:22.114Z,102503.98
2018-09-02T10:04:52.631Z,102509.05
2018-09-02T10:07:22.791Z,102503.88
2018-09-02T10:09:52.269Z,102510.69
2018-09-02T10:12:29.076Z,102511.19
2018-09-02T10:15:00.582Z,102504.21
2018-09-02T10:17:32.676Z,102503.88
2018-09-02T10:20:02.289Z,102502.17
2018-09-02T10:22:33.876Z,102505.13
2018-09-02T10:25:03.565Z,102501.53
2018-09-02T10:27:34.658Z,102500.60
2018-09-02T10:30:03.906Z,102500.96
2018-09-02T10:32:33.279Z,102499.37
2018-09-02T10:35:06.989Z,102490.95
2018-09-02T10:37:37.295Z,102492.02
2018-09-02T10:40:07.881Z,102491.89
2018-09-02T10:42:38.329Z,102496.59
2018-09-02T10:45:11.211Z,102492.97
2018-09-02T10:47:40.550Z,102491.77
2018-09-02T10:50:10.675Z,102491.67
2018-09-02T10:52:44.754Z,102488.55
2018-09-02T10:55:25.618Z,102481.32
2018-09-02T10:58:03.915Z,102489.41
2018-09-02T11:00:35.612Z,102481.19
2018-09-02T11:03:09.248Z,102473.11
2018-09-02T11:05:38.570Z,102470.30
2018-09-02T11:08:11.046Z,102467.84
2018-09-02T11:10:40.329Z,102471.34
2018-09-02T11:13:11.348Z,102476.60
2018-09-02T11:15:41.219Z,102474.38
2018-09-02T11:18:12.731Z,102476.30
2018-09-02T11:20:45.569Z,102474.79
2018-09-02T11:23:18.935Z,102468.48
2018-09-02T11:25:48.602Z,102469.14
2018-09-02T11:28:18.434Z,102477.73
2018-09-02T11:30:48.527Z,102470.95
2018-09-02T11:33:18.894Z,102468.44
2018-09-02T11:35:48.570Z,102467.35
2018-09-02T11:38:18.677Z,102470.30
2018-09-02T11:40:53.764Z,102461.91
2018-09-02T11:43:23.998Z,102450.44
2018-09-02T11:45:55.623Z,102451.38
2018-09-02T11:48:26.658Z,102447.09
2018-09-02T11:51:02.125Z,102444.86
2018-09-02T11:53:32.177Z,102445.98
2018-09-02T11:56:01.628Z,102438.98
2018-09-02T11:58:32.672Z,102434.95
2018-09-02T12:01:05.158Z,102439.59
2018-09-02T12:03:35.081Z,102430.43
2018-09-02T12:08:52.009Z,102427.01
2018-09-02T12:11:23.870Z,102418.95
2018-09-02T12:13:54.517Z,102414.02
2018-09-02T12:16:24.686Z,102420.61
2018-09-02T12:18:54.704Z,102422.51
2018-09-02T12:21:24.461Z,102419.34
2018-09-02T12:23:59.872Z,102417.56
2018-09-02T12:26:31.038Z,102412.55
2018-09-02T12:29:00.339Z,102408.06
2018-09-02T12:31:30.405Z,102416.45
2018-09-02T12:33:59.700Z,102414.46
2018-09-02T12:36:29.166Z,102407.33
2018-09-02T12:38:58.442Z,102409.91
2018-09-02T12:41:27.894Z,102408.91
2018-09-02T12:43:57.483Z,102402.17
2018-09-02T12:46:27.003Z,102403.82
2018-09-02T12:48:56.434Z,102412.60
2018-09-02T12:51:27.599Z,102410.18
2018-09-02T12:53:58.260Z,102415.16
2018-09-02T12:56:28.955Z,102408.84
2018-09-02T12:58:59.626Z,102398.86
2018-09-02T13:01:30.294Z,102398.56
2018-09-02T13:04:00.646Z,102390.99
2018-09-02T13:06:31.142Z,102386.39
2018-09-02T13:09:06.907Z,102371.89
2018-09-02T13:11:39.777Z,102384.17
2018-09-02T13:14:12.184Z,102377.69
2018-09-02T13:16:42.868Z,102381.41
2018-09-02T13:19:15.467Z,102381.00
2018-09-02T13:21:50.805Z,102378.73
2018-09-02T13:24:23.695Z,102372.50
2018-09-02T13:26:55.007Z,102376.19
2018-09-02T13:29:29.442Z,102373.32
2018-09-02T13:32:00.784Z,102368.77
2018-09-02T13:34:31.751Z,102363.66
2018-09-02T13:37:02.667Z,102359.95
2018-09-02T13:39:34.464Z,102361.28
2018-09-02T13:42:04.823Z,102356.09
2018-09-02T13:44:34.175Z,102357.87
2018-09-02T13:47:03.814Z,102353.70
2018-09-02T13:49:34.952Z,102354.89
2018-09-02T13:52:05.564Z,102349.53
2018-09-02T13:54:34.939Z,102343.19
2018-09-02T13:57:04.216Z,102347.55
2018-09-02T13:59:33.592Z,102336.56
2018-09-02T14:02:02.947Z,102342.05
2018-09-02T14:04:34.140Z,102332.29
2018-09-02T14:07:05.406Z,102333.84
2018-09-02T14:09:34.809Z,102334.33
2018-09-02T14:12:06.406Z,102332.50
2018-09-02T14:14:35.641Z,102335.96
2018-09-02T14:17:04.890Z,102332.59
2018-09-02T14:19:35.759Z,102333.20
2018-09-02T14:22:05.140Z,102326.42
2018-09-02T14:24:34.483Z,102317.25
2018-09-02T14:27:03.701Z,102318.58
2018-09-02T14:29:33.062Z,102314.66
2018-09-02T14:32:02.321Z,102306.08
2018-09-02T14:34:31.673Z,102310.89
2018-09-02T14:37:01.001Z,102306.94
2018-09-02T14:39:30.230Z,102307.81
2018-09-02T14:41:59.606Z,102304.97
2018-09-02T14:44:29.055Z,102305.38
2018-09-02T14:46:58.533Z,102310.55
2018-09-02T14:49:28.792Z,102303.35
2018-09-02T14:51:58.314Z,102299.75
2018-09-02T14:54:27.721Z,102298.72
2018-09-02T14:56:57.021Z,102303.33
2018-09-02T14:59:27.532Z,102298.63
2018-09-02T15:01:56.868Z,102305.23
2018-09-02T15:04:26.162Z,102307.72
2018-09-02T15:06:57.333Z,102301.41
2018-09-02T15:09:26.672Z,102298.30
2018-09-02T15:11:56.056Z,102297.59
2018-09-02T15:14:25.377Z,102298.47
2018-09-02T15:16:54.783Z,102293.89
2018-09-02T15:19:24.129Z,102298.56
2018-09-02T15:21:53.596Z,102291.45
2018-09-02T15:24:23.197Z,102292.38
2018-09-02T15:26:52.794Z,102293.38
2018-09-02T15:29:22.312Z,102286.20
2018-09-02T15:31:52.214Z,102289.22
2018-09-02T15:34:21.622Z,102282.85
2018-09-02T15:36:51.835Z,102274.77
2018-09-02T15:39:21.750Z,102271.34
2018-09-02T15:41:51.281Z,102271.39
2018-09-02T15:44:20.953Z,102275.11
2018-09-02T15:46:50.975Z,102267.80
2018-09-02T15:49:20.668Z,102265.14
2018-09-02T15:51:50.537Z,102259.06
2018-09-02T15:54:20.189Z,102257.86
2018-09-02T15:56:49.815Z,102254.23
2018-09-02T15:59:19.840Z,102254.63
2018-09-02T16:01:49.367Z,102258.01
2018-09-02T16:04:19.632Z,102254.86
2018-09-02T16:06:52.975Z,102254.50
2018-09-02T16:09:23.691Z,102257.63
2018-09-02T16:11:53.793Z,102246.98
2018-09-02T16:14:26.025Z,102255.20
2018-09-02T16:16:56.294Z,102247.04
2018-09-02T16:19:26.015Z,102243.05
2018-09-02T16:21:57.967Z,102248.13
2018-09-02T16:24:29.002Z,102244.81
2018-09-02T16:26:58.637Z,102244.21
2018-09-02T16:29:28.181Z,102243.89
2018-09-02T16:31:57.866Z,102237.82
2018-09-02T16:34:28.347Z,102237.09
2018-09-02T16:36:58.984Z,102237.25
2018-09-02T16:39:28.451Z,102233.11
2018-09-02T16:41:58.090Z,102233.95
2018-09-02T16:44:28.138Z,102222.59
2018-09-02T16:46:57.701Z,102223.79
2018-09-02T16:49:27.770Z,102226.45
2018-09-02T16:51:57.182Z,102217.05
2018-09-02T16:54:28.890Z,102215.09
2018-09-02T16:56:58.822Z,102211.91
2018-09-02T16:59:28.183Z,102216.44
2018-09-02T17:01:58.307Z,102216.63
2018-09-02T17:04:30.688Z,102209.87
2018-09-02T17:07:00.617Z,102215.30
2018-09-02T17:09:30.141Z,102212.59
2018-09-02T17:11:59.764Z,102206.61
2018-09-02T17:14:28.822Z,102203.69
2018-09-02T17:16:58.927Z,102205.61
2018-09-02T17:19:31.227Z,102201.25
2018-09-02T17:22:01.889Z,102198.04
2018-09-02T17:24:31.378Z,102200.63
2018-09-02T17:27:02.390Z,102201.84
2018-09-02T17:29:31.692Z,102201.12
2018-09-02T17:32:04.375Z,102194.56
2018-09-02T17:34:33.707Z,102192.55
2018-09-02T17:37:03.411Z,102195.62
2018-09-02T17:39:33.790Z,102186.13
2018-09-02T17:42:03.158Z,102195.59
2018-09-02T17:44:32.532Z,102195.95
2018-09-02T17:47:01.953Z,102190.72
2018-09-02T17:49:31.638Z,102187.64
2018-09-02T17:52:01.083Z,102189.95
2018-09-02T17:54:30.820Z,102182.70
2018-09-02T17:57:00.103Z,102195.53
2018-09-02T17:59:29.538Z,102194.80
2018-09-02T18:01:58.981Z,102192.95
2018-09-02T18:04:28.546Z,102194.58
2018-09-02T18:07:05.350Z,102195.09
2018-09-02T18:09:35.505Z,102195.95
2018-09-02T18:12:06.963Z,102200.88
2018-09-02T18:14:36.282Z,102198.70
2018-09-02T18:17:06.928Z,102198.57
2018-09-02T18:19:37.697Z,102197.13
2018-09-02T18:22:07.618Z,102200.20
2018-09-02T18:24:36.874Z,102204.50
2018-09-02T18:27:07.592Z,102200.84
2018-09-02T18:29:36.982Z,102202.08
2018-09-02T18:32:06.726Z,102199.78
2018-09-02T18:34:38.897Z,102201.49
2018-09-02T18:37:10.261Z,102204.06
2018-09-02T18:39:41.654Z,102206.78
2018-09-02T18:44:51.991Z,102208.77
2018-09-02T18:47:21.558Z,102213.49
2018-09-02T18:49:51.383Z,102218.28
2018-09-02T18:52:23.793Z,102219.63
2018-09-02T18:54:54.474Z,102221.88
2018-09-02T18:57:24.325Z,102220.42
2018-09-02T18:59:53.971Z,102211.18
2018-09-02T19:02:23.643Z,102214.52
2018-09-02T19:04:53.575Z,102218.47
2018-09-02T19:07:23.157Z,102226.20
2018-09-02T19:09:52.605Z,102226.95
2018-09-02T19:12:23.029Z,102224.40
2018-09-02T19:14:52.908Z,102223.39
2018-09-02T19:17:22.664Z,102221.80
2018-09-02T19:19:53.055Z,102224.02
2018-09-02T19:22:22.599Z,102213.18
2018-09-02T19:24:52.594Z,102219.23
2018-09-02T19:27:22.898Z,102219.70
2018-09-02T19:29:52.812Z,102215.80
2018-09-02T19:32:23.025Z,102214.30
2018-09-02T19:34:53.473Z,102209.77
2018-09-02T19:37:23.154Z,102210.98
2018-09-02T19:39:53.160Z,102208.41
2018-09-02T19:42:22.889Z,102212.34
2018-09-02T19:44:52.413Z,102210.86
2018-09-02T19:47:22.122Z,102210.75
2018-09-02T19:49:53.993Z,102207.30
2018-09-02T19:52:23.721Z,102206.58
2018-09-02T19:54:53.406Z,102213.47
2018-09-02T19:57:24.809Z,102209.65
2018-09-02T19:59:54.374Z,102203.36
2018-09-02T20:02:24.006Z,102203.11
2018-09-02T20:04:53.550Z,102197.97
2018-09-02T20:07:23.359Z,102199.31
2018-09-02T20:09:55.688Z,102196.84
2018-09-02T20:12:27.265Z,102191.07
2018-09-02T20:14:56.613Z,102185.53
2018-09-02T20:17:26.098Z,102185.05
2018-09-02T20:19:55.632Z,102182.34
2018-09-02T20:22:25.960Z,102180.95
2018-09-02T20:24:55.436Z,102176.42
2018-09-02T20:27:24.759Z,102177.91
2018-09-02T20:29:54.210Z,102180.13
2018-09-02T20:32:23.766Z,102178.14
2018-09-02T20:34:56.344Z,102174.58
2018-09-02T20:37:25.920Z,102178.87
2018-09-02T20:39:55.323Z,102177.16
2018-09-02T20:42:24.996Z,102175.20
2018-09-02T20:44:54.488Z,102169.53
2018-09-02T20:47:24.418Z,102171.61
2018-09-02T20:49:54.095Z,102166.83
2018-09-02T20:52:23.685Z,102164.85
2018-09-02T20:54:53.188Z,102169.14
2018-09-02T20:57:23.506Z,102166.09
2018-09-02T20:59:53.243Z,102169.17
2018-09-02T21:02:23.368Z,102161.28
2018-09-02T21:04:53.074Z,102162.16
2018-09-02T21:07:22.608Z,102156.49
2018-09-02T21:09:52.572Z,102169.06
2018-09-02T21:12:22.167Z,102163.75
2018-09-02T21:14:52.254Z,102158.08
2018-09-02T21:17:22.991Z,102154.02
2018-09-02T21:19:53.383Z,102155.14
2018-09-02T21:22:22.852Z,102161.80
2018-09-02T21:24:52.262Z,102164.14
2018-09-02T21:27:22.499Z,102156.16
2018-09-02T21:29:51.981Z,102154.91
2018-09-02T21:32:21.393Z,102156.88
2018-09-02T21:34:51.812Z,102152.59
2018-09-02T21:37:21.220Z,102151.00
2018-09-02T21:39:50.889Z,102146.16
2018-09-02T21:42:20.537Z,102152.17
2018-09-02T21:44:50.012Z,102152.95
2018-09-02T21:47:20.692Z,102153.31
2018-09-02T21:49:51.532Z,102151.83
2018-09-02T21:52:20.930Z,102148.39
2018-09-02T21:54:50.397Z,102144.47
2018-09-02T21:57:20.714Z,102143.61
2018-09-02T21:59:50.357Z,102145.91
2018-09-02T22:02:20.021Z,102144.45
2018-09-02T22:04:50.294Z,102140.00
2018-09-02T22:07:20.041Z,102145.20
2018-09-02T22:09:49.847Z,102143.23
2018-09-02T22:12:20.186Z,102142.97
2018-09-02T22:14:50.144Z,102135.59
2018-09-02T22:17:19.667Z,102131.66
2018-09-02T22:19:49.099Z,102135.84
2018-09-02T22:22:18.463Z,102133.00
2018-09-02T22:24:48.233Z,102130.93
2018-09-02T22:27:17.840Z,102137.81
2018-09-02T22:29:47.246Z,102133.98
2018-09-02T22:32:16.692Z,102134.97
2018-09-02T22:34:46.507Z,102138.80
2018-09-02T22:37:16.137Z,102134.01
2018-09-02T22:39:46.137Z,102127.12
2018-09-02T22:42:16.100Z,102123.82
2018-09-02T22:44:45.882Z,102127.50
2018-09-02T22:47:15.520Z,102128.48
2018-09-02T22:49:46.937Z,102119.39
2018-09-02T22:52:16.938Z,102128.11
2018-09-02T22:54:47.142Z,102124.16
2018-09-02T22:57:16.682Z,102116.20
2018-09-02T22:59:46.171Z,102114.95
2018-09-02T23:02:15.762Z,102113.24
2018-09-02T23:04:45.388Z,102109.67
2018-09-02T23:07:15.146Z,102108.70
2018-09-02T23:09:45.570Z,102103.66
2018-09-02T23:12:15.073Z,102095.66
2018-09-02T23:14:45.667Z,102096.16
2018-09-02T23:17:15.273Z,102088.02
2018-09-02T23:19:45.411Z,102096.62
2018-09-02T23:22:14.869Z,102093.30
2018-09-02T23:24:44.446Z,102088.00
2018-09-02T23:27:16.339Z,102085.70
2018-09-02T23:29:46.298Z,102079.19
2018-09-02T23:32:15.907Z,102085.92
2018-09-02T23:34:46.973Z,102081.63
2018-09-02T23:37:16.416Z,102082.48
2018-09-02T23:39:46.827Z,102084.08
2018-09-02T23:42:17.373Z,102076.72
2018-09-02T23:44:46.750Z,102078.44
2018-09-02T23:47:16.378Z,102073.55
2018-09-02T23:49:46.347Z,102068.97
2018-09-02T23:52:15.787Z,102061.19
2018-09-02T23:54:45.400Z,102061.22
2018-09-02T23:57:16.511Z,102060.00
